Rio Pico, Argentina
Current Conditions -  °F | °C
As of 11:00 PM on Friday 28 Nov 2014 (Local Time) from SCAP Reporting Station
Broken Clouds Broken Clouds  
Wind Chill:   Ceiling: 4000
Heat Index:   Visibility: NA
Dew Point:   Wind: 15mph
Humidity: 71%   Direction: 210°SSW
Pressure: 30.09"   Gusts: NA
Location:  44.2°S, 71.35°W
Report Text: SCAP 290200Z AUTO 21013KT 180V260 //// // BKN040 07/02 Q1019
Loading
Personal Weather Stations






























Interactive Weather Map New forecast layout! Learn more

10-Day Weather Forecast

Advertisements
Track Severe Weather on mobile